createdAt,value
2018-11-06T00:01:23.162Z,32.30
2018-11-06T00:03:49.980Z,32.60
2018-11-06T00:06:16.050Z,29.10
2018-11-06T00:08:42.083Z,26.10
2018-11-06T00:11:08.127Z,27.30
2018-11-06T00:13:34.148Z,36.40
2018-11-06T00:16:00.152Z,29.13
2018-11-06T00:18:26.172Z,28.60
2018-11-06T00:20:52.484Z,26.60
2018-11-06T00:23:19.218Z,31.30
2018-11-06T00:25:45.209Z,57.77
2018-11-06T00:28:11.175Z,131.80
2018-11-06T00:30:37.972Z,79.70
2018-11-06T00:33:04.037Z,143.37
2018-11-06T00:35:30.805Z,62.10
2018-11-06T00:38:11.813Z,34.40
2018-11-06T00:40:37.860Z,31.30
2018-11-06T00:43:04.713Z,43.57
2018-11-06T00:45:31.012Z,33.13
2018-11-06T00:47:57.006Z,44.63
2018-11-06T00:50:23.019Z,68.30
2018-11-06T00:52:49.023Z,54.83
2018-11-06T00:55:15.829Z,28.57
2018-11-06T00:57:41.898Z,32.00
2018-11-06T01:00:17.909Z,136.30
2018-11-06T01:02:43.941Z,160.63
2018-11-06T01:05:09.933Z,151.77
2018-11-06T01:07:35.965Z,132.50
2018-11-06T01:10:01.970Z,64.37
2018-11-06T01:12:27.979Z,49.83
2018-11-06T01:14:53.978Z,36.40
2018-11-06T01:17:19.963Z,29.77
2018-11-06T01:19:45.942Z,71.90
2018-11-06T01:22:11.958Z,35.83
2018-11-06T01:24:37.973Z,26.57
2018-11-06T01:27:04.761Z,68.03
2018-11-06T01:29:30.786Z,63.50
2018-11-06T01:31:56.784Z,143.33
2018-11-06T01:34:22.780Z,141.43
2018-11-06T01:36:48.807Z,79.03
2018-11-06T01:39:14.810Z,55.43
2018-11-06T01:41:40.814Z,28.60
2018-11-06T01:44:06.815Z,28.90
2018-11-06T01:46:32.824Z,84.33
2018-11-06T01:48:58.869Z,48.33
2018-11-06T01:51:24.914Z,23.20
2018-11-06T01:53:51.177Z,23.80
2018-11-06T01:56:17.219Z,25.77
2018-11-06T01:58:44.008Z,65.30
2018-11-06T02:01:10.037Z,40.93
2018-11-06T02:03:36.104Z,51.47
2018-11-06T02:06:02.890Z,133.53
2018-11-06T02:08:28.956Z,118.27
2018-11-06T02:10:55.286Z,52.27
2018-11-06T02:13:21.304Z,95.67
2018-11-06T02:15:47.324Z,63.47
2018-11-06T02:18:13.348Z,127.67
2018-11-06T02:20:39.376Z,105.60
2018-11-06T02:23:05.426Z,37.73
2018-11-06T02:25:31.469Z,24.50
2018-11-06T02:27:57.521Z,77.43
2018-11-06T02:30:23.615Z,30.43
2018-11-06T02:32:49.636Z,38.83
2018-11-06T02:35:15.640Z,55.13
2018-11-06T02:37:42.461Z,45.97
2018-11-06T02:40:08.536Z,49.80
2018-11-06T02:42:34.559Z,28.00
2018-11-06T02:45:00.597Z,23.13
2018-11-06T02:47:26.641Z,24.47
2018-11-06T02:49:52.620Z,25.67
2018-11-06T02:52:19.411Z,24.97
2018-11-06T02:54:45.405Z,25.90
2018-11-06T02:57:11.439Z,22.47
2018-11-06T02:59:37.448Z,27.50
2018-11-06T03:02:03.472Z,33.93
2018-11-06T03:04:29.475Z,37.60
2018-11-06T03:06:55.496Z,69.53
2018-11-06T03:09:22.260Z,68.07
2018-11-06T03:11:48.316Z,36.13
2018-11-06T03:14:14.336Z,31.27
2018-11-06T03:16:40.358Z,59.57
2018-11-06T03:19:06.350Z,31.00
2018-11-06T03:21:32.337Z,35.47
2018-11-06T03:23:58.428Z,26.20
2018-11-06T03:26:24.514Z,36.50
2018-11-06T03:28:51.249Z,27.73
2018-11-06T03:31:17.253Z,26.77
2018-11-06T03:33:43.276Z,25.43
2018-11-06T03:36:09.286Z,23.23
2018-11-06T03:38:35.261Z,25.30
2018-11-06T03:41:01.272Z,23.50
2018-11-06T03:43:27.249Z,23.00
2018-11-06T03:45:53.227Z,21.53
2018-11-06T03:48:19.224Z,22.27
2018-11-06T03:50:45.943Z,21.10
2018-11-06T03:53:11.926Z,19.80
2018-11-06T03:55:37.905Z,21.37
2018-11-06T03:58:03.880Z,21.23
2018-11-06T04:00:29.949Z,20.20
2018-11-06T04:02:55.941Z,20.97
2018-11-06T04:05:22.361Z,115.13
2018-11-06T04:07:48.341Z,92.90
2018-11-06T04:10:15.097Z,92.43
2018-11-06T04:12:41.072Z,65.70
2018-11-06T04:15:07.057Z,50.43
2018-11-06T04:17:33.039Z,31.77
2018-11-06T04:19:59.027Z,26.80
2018-11-06T04:22:25.010Z,24.77
2018-11-06T04:24:50.984Z,18.43
2018-11-06T04:27:16.966Z,18.60
2018-11-06T04:29:42.982Z,17.40
2018-11-06T04:32:09.695Z,17.17
2018-11-06T04:34:35.672Z,19.40
2018-11-06T04:37:01.686Z,23.30
2018-11-06T04:39:27.667Z,21.20
2018-11-06T04:41:54.385Z,40.90
2018-11-06T04:44:20.453Z,47.43
2018-11-06T04:46:46.438Z,36.00
2018-11-06T04:49:12.433Z,30.53
2018-11-06T04:51:38.389Z,26.97
2018-11-06T04:54:04.382Z,27.30
2018-11-06T04:56:30.341Z,20.60
2018-11-06T04:58:56.325Z,24.83
2018-11-06T05:01:22.317Z,25.57
2018-11-06T05:03:48.311Z,18.67
2018-11-06T05:06:14.293Z,19.47
2018-11-06T05:08:40.280Z,16.57
2018-11-06T05:11:06.274Z,41.30
2018-11-06T05:13:32.258Z,37.93
2018-11-06T05:15:58.227Z,70.57
2018-11-06T05:18:24.218Z,63.17
2018-11-06T05:20:50.178Z,47.70
2018-11-06T05:23:16.158Z,71.00
2018-11-06T05:25:42.158Z,56.83
2018-11-06T05:28:08.129Z,100.37
2018-11-06T05:30:34.117Z,57.20
2018-11-06T05:33:00.126Z,56.70
2018-11-06T05:35:26.836Z,73.67
2018-11-06T05:37:53.568Z,73.63
2018-11-06T05:40:42.513Z,68.93
2018-11-06T05:43:08.517Z,80.70
2018-11-06T05:45:34.604Z,91.20
2018-11-06T05:48:00.573Z,79.23
2018-11-06T05:50:26.556Z,128.17
2018-11-06T05:52:52.535Z,55.07
2018-11-06T05:55:18.528Z,87.67
2018-11-06T05:57:44.500Z,67.13
2018-11-06T06:00:11.212Z,89.33
2018-11-06T06:02:37.210Z,71.37
2018-11-06T06:05:03.192Z,71.25
2018-11-06T06:07:29.912Z,73.87
2018-11-06T06:09:55.899Z,28.83
2018-11-06T06:12:21.876Z,35.97
2018-11-06T06:14:48.636Z,28.60
2018-11-06T06:17:14.682Z,21.33
2018-11-06T06:19:40.612Z,28.03
2018-11-06T06:22:06.593Z,26.73
2018-11-06T06:24:33.324Z,22.03
2018-11-06T06:27:00.040Z,24.13
2018-11-06T06:29:26.028Z,21.23
2018-11-06T06:31:52.036Z,24.93
2018-11-06T06:34:18.038Z,24.07
2018-11-06T06:36:44.740Z,30.77
2018-11-06T06:39:10.732Z,25.20
2018-11-06T06:41:36.721Z,33.67
2018-11-06T06:44:03.443Z,39.67
2018-11-06T06:46:29.529Z,32.17
2018-11-06T06:48:55.414Z,34.30
2018-11-06T06:51:21.373Z,27.27
2018-11-06T06:53:47.364Z,30.47
2018-11-06T06:56:14.100Z,25.20
2018-11-06T06:58:40.078Z,24.23
2018-11-06T07:01:06.079Z,28.27
2018-11-06T07:03:32.061Z,27.57
2018-11-06T07:05:58.793Z,24.73
2018-11-06T07:08:24.768Z,22.37
2018-11-06T07:10:50.758Z,22.57
2018-11-06T07:13:17.504Z,23.43
2018-11-06T07:15:43.487Z,20.17
2018-11-06T07:18:09.476Z,20.00
2018-11-06T07:20:35.473Z,22.53
2018-11-06T07:23:01.441Z,20.83
2018-11-06T07:25:27.448Z,21.23
2018-11-06T07:27:53.445Z,18.33
2018-11-06T07:30:26.456Z,21.50
2018-11-06T07:32:52.434Z,18.40
2018-11-06T07:35:19.253Z,19.70
2018-11-06T07:37:45.191Z,19.53
2018-11-06T07:40:11.182Z,18.10
2018-11-06T07:42:37.179Z,18.40
2018-11-06T07:45:03.188Z,18.77
2018-11-06T07:47:29.169Z,20.67
2018-11-06T07:49:55.307Z,21.73
2018-11-06T07:52:21.953Z,22.73
2018-11-06T07:54:48.716Z,21.40
2018-11-06T07:57:14.746Z,24.03
2018-11-06T07:59:40.775Z,22.67
2018-11-06T08:02:06.804Z,25.07
2018-11-06T08:04:32.840Z,26.77
2018-11-06T08:06:58.905Z,28.97
2018-11-06T08:09:24.996Z,26.90
2018-11-06T08:11:51.052Z,27.33
2018-11-06T08:14:17.097Z,24.53
2018-11-06T08:16:43.874Z,24.73
2018-11-06T08:19:09.919Z,24.87
2018-11-06T08:21:35.947Z,23.87
2018-11-06T08:24:02.072Z,29.20
2018-11-06T08:26:28.779Z,25.53
2018-11-06T08:28:54.834Z,24.33
2018-11-06T08:31:21.302Z,23.27
2018-11-06T08:33:46.973Z,24.07
2018-11-06T08:36:13.017Z,25.87
2018-11-06T08:38:39.028Z,23.27
2018-11-06T08:41:05.071Z,23.57
2018-11-06T08:43:31.111Z,22.83
2018-11-06T08:45:57.916Z,22.87
2018-11-06T08:48:23.970Z,25.50
2018-11-06T08:50:50.006Z,24.20
2018-11-06T08:53:16.793Z,25.40
2018-11-06T08:55:42.810Z,23.83
2018-11-06T08:58:08.825Z,24.27
2018-11-06T09:00:34.862Z,26.67
2018-11-06T09:03:01.117Z,24.63
2018-11-06T09:05:27.281Z,25.17
2018-11-06T09:07:54.065Z,23.00
2018-11-06T09:10:20.103Z,22.10
2018-11-06T09:12:46.152Z,26.70
2018-11-06T09:15:12.965Z,22.83
2018-11-06T09:17:38.968Z,22.83
2018-11-06T09:20:04.950Z,25.03
2018-11-06T09:22:30.924Z,24.13
2018-11-06T09:24:56.922Z,26.57
2018-11-06T09:27:22.926Z,25.23
2018-11-06T09:29:49.649Z,27.83
2018-11-06T09:32:15.636Z,29.10
2018-11-06T09:34:41.628Z,31.00
2018-11-06T09:37:08.337Z,41.30
2018-11-06T09:39:34.320Z,31.23
2018-11-06T09:42:00.313Z,29.90
2018-11-06T09:44:26.317Z,28.23
2018-11-06T09:46:52.309Z,31.13
2018-11-06T09:49:18.333Z,29.23
2018-11-06T09:51:44.296Z,34.50
2018-11-06T09:54:10.363Z,31.00
2018-11-06T09:56:36.358Z,29.00
2018-11-06T09:59:03.117Z,27.57
2018-11-06T10:01:29.134Z,29.80
2018-11-06T10:03:55.121Z,30.60
2018-11-06T10:06:21.193Z,26.90
2018-11-06T10:08:47.097Z,28.53
2018-11-06T10:11:13.066Z,30.83
2018-11-06T10:13:45.816Z,28.03
2018-11-06T10:16:11.790Z,29.50
2018-11-06T10:18:37.804Z,26.60
2018-11-06T10:21:03.810Z,26.53
2018-11-06T10:23:29.791Z,27.53
2018-11-06T10:25:56.516Z,26.53
2018-11-06T10:28:23.291Z,28.80
2018-11-06T10:30:49.356Z,25.67
2018-11-06T10:33:15.281Z,27.43
2018-11-06T10:35:41.596Z,26.83
2018-11-06T10:38:07.926Z,27.80
2018-11-06T10:40:34.416Z,26.10
2018-11-06T10:43:00.906Z,26.40
2018-11-06T10:45:27.477Z,26.00
2018-11-06T10:47:53.969Z,27.63
2018-11-06T10:50:20.648Z,27.33
2018-11-06T10:52:47.084Z,27.10
2018-11-06T10:55:13.617Z,25.90
2018-11-06T10:57:40.081Z,25.93
2018-11-06T11:00:06.668Z,27.03
2018-11-06T11:02:33.287Z,26.77
2018-11-06T11:04:59.703Z,27.90
2018-11-06T11:07:25.784Z,24.23
2018-11-06T11:09:52.243Z,28.60
2018-11-06T11:12:19.547Z,28.73
2018-11-06T11:14:47.548Z,25.13
2018-11-06T11:17:14.159Z,24.60
2018-11-06T11:19:40.800Z,25.00
2018-11-06T11:22:07.439Z,27.37
2018-11-06T11:24:34.019Z,28.10
2018-11-06T11:27:00.553Z,26.57
2018-11-06T11:29:27.946Z,26.60
2018-11-06T11:31:54.456Z,26.37
2018-11-06T11:34:21.930Z,27.03
2018-11-06T11:36:48.501Z,27.43
2018-11-06T11:39:15.068Z,27.73
2018-11-06T11:41:41.650Z,27.40
2018-11-06T11:44:08.198Z,27.10
2018-11-06T11:46:34.782Z,27.17
2018-11-06T11:49:01.308Z,28.53
2018-11-06T11:51:29.130Z,31.73
2018-11-06T11:53:55.717Z,27.77
2018-11-06T11:56:22.933Z,28.83
2018-11-06T11:58:49.462Z,30.63
2018-11-06T12:01:15.685Z,27.23
2018-11-06T12:03:42.297Z,27.00
2018-11-06T12:06:08.846Z,28.93
2018-11-06T12:08:35.297Z,29.00
2018-11-06T12:11:01.793Z,30.03
2018-11-06T12:13:28.314Z,30.90
2018-11-06T12:15:54.751Z,28.97
2018-11-06T12:18:21.126Z,28.43
2018-11-06T12:20:47.368Z,27.27
2018-11-06T12:23:13.588Z,28.07
2018-11-06T12:25:40.208Z,30.60
2018-11-06T12:28:06.661Z,30.70
2018-11-06T12:30:33.302Z,31.40
2018-11-06T12:32:59.837Z,27.60
2018-11-06T12:35:26.481Z,29.50
2018-11-06T12:37:53.097Z,29.53
2018-11-06T12:40:19.636Z,29.90
2018-11-06T12:42:46.083Z,28.50
2018-11-06T12:45:12.723Z,28.70
2018-11-06T12:47:42.108Z,29.00
2018-11-06T12:50:08.549Z,28.77
2018-11-06T12:52:34.941Z,30.23
2018-11-06T12:55:01.118Z,27.90
2018-11-06T12:57:27.663Z,27.10
2018-11-06T12:59:54.158Z,29.10
2018-11-06T13:02:20.982Z,28.20
2018-11-06T13:04:47.464Z,30.47
2018-11-06T13:07:13.812Z,29.00
2018-11-06T13:09:40.165Z,26.57
2018-11-06T13:12:07.385Z,27.33
2018-11-06T13:14:33.954Z,28.80
2018-11-06T13:17:00.068Z,27.10
2018-11-06T13:19:26.376Z,27.20
2018-11-06T13:21:52.792Z,27.70
2018-11-06T13:24:19.276Z,26.17
2018-11-06T13:26:45.820Z,27.87
2018-11-06T13:29:12.439Z,25.90
2018-11-06T13:31:39.066Z,25.97
2018-11-06T13:34:05.983Z,28.30
2018-11-06T13:36:32.583Z,25.13
2018-11-06T13:38:59.281Z,25.03
2018-11-06T13:41:25.970Z,24.37
2018-11-06T13:43:52.913Z,25.20
2018-11-06T13:46:19.503Z,26.80
2018-11-06T13:48:46.135Z,24.03
2018-11-06T13:51:12.948Z,23.90
2018-11-06T13:53:38.962Z,24.17
2018-11-06T13:56:04.992Z,25.67
2018-11-06T13:58:31.036Z,21.90
2018-11-06T14:00:57.044Z,25.27
2018-11-06T14:03:30.204Z,27.17
2018-11-06T14:05:56.274Z,23.20
2018-11-06T14:08:22.485Z,23.57
2018-11-06T14:10:48.528Z,26.00
2018-11-06T14:13:14.580Z,22.70
2018-11-06T14:15:40.762Z,27.23
2018-11-06T14:18:07.002Z,22.97
2018-11-06T14:20:33.152Z,22.33
2018-11-06T14:22:59.575Z,23.80
2018-11-06T14:25:25.645Z,23.80
2018-11-06T14:27:51.700Z,23.43
2018-11-06T14:30:17.657Z,26.10
2018-11-06T14:32:43.647Z,23.13
2018-11-06T14:35:09.614Z,25.50
2018-11-06T14:37:35.582Z,22.60
2018-11-06T14:40:01.969Z,25.00
2018-11-06T14:42:28.052Z,24.90
2018-11-06T14:44:53.983Z,24.00
2018-11-06T14:47:19.960Z,26.37
2018-11-06T14:49:46.661Z,27.53
2018-11-06T14:52:12.652Z,25.90
2018-11-06T14:54:38.652Z,23.73
2018-11-06T14:57:04.648Z,23.50
2018-11-06T14:59:30.618Z,22.10
2018-11-06T15:01:56.649Z,22.63
2018-11-06T15:04:22.632Z,24.30
2018-11-06T15:06:49.378Z,23.33
2018-11-06T15:09:15.419Z,22.23
2018-11-06T15:11:41.402Z,24.80
2018-11-06T15:14:07.475Z,25.10
2018-11-06T15:16:33.577Z,25.80
2018-11-06T15:19:00.321Z,24.73
2018-11-06T15:21:27.049Z,26.23
2018-11-06T15:23:53.058Z,26.07
2018-11-06T15:26:19.039Z,26.37
2018-11-06T15:28:45.417Z,25.80
2018-11-06T15:31:12.262Z,28.13
2018-11-06T15:33:38.999Z,28.20
2018-11-06T15:36:04.993Z,29.23
2018-11-06T15:38:31.053Z,28.70
2018-11-06T15:40:57.107Z,27.30
2018-11-06T15:43:23.067Z,25.53
2018-11-06T15:45:49.057Z,27.53
2018-11-06T15:48:15.279Z,30.47
2018-11-06T15:50:41.310Z,31.97
2018-11-06T15:53:07.288Z,32.40
2018-11-06T15:55:33.583Z,32.30
2018-11-06T15:57:59.614Z,29.63
2018-11-06T16:00:25.831Z,27.70
2018-11-06T16:02:51.889Z,28.70
2018-11-06T16:05:17.897Z,34.80
2018-11-06T16:07:43.905Z,37.40
2018-11-06T16:10:10.669Z,43.33
2018-11-06T16:12:36.664Z,41.53
2018-11-06T16:15:03.266Z,34.80
2018-11-06T16:17:29.377Z,36.30
2018-11-06T16:19:55.781Z,32.13
2018-11-06T16:22:21.794Z,30.30
2018-11-06T16:24:47.786Z,29.93
2018-11-06T16:27:14.533Z,32.33
2018-11-06T16:29:40.534Z,27.87
2018-11-06T16:32:06.499Z,29.27
2018-11-06T16:34:33.009Z,27.70
2018-11-06T16:36:59.421Z,28.80
2018-11-06T16:39:25.503Z,30.43
2018-11-06T16:41:51.795Z,29.27
2018-11-06T16:44:18.070Z,31.37
2018-11-06T16:46:44.142Z,32.10
2018-11-06T16:49:10.521Z,27.27
2018-11-06T16:51:36.556Z,24.37
2018-11-06T16:54:02.529Z,24.23
2018-11-06T16:56:29.328Z,24.17
2018-11-06T16:58:55.388Z,24.53
2018-11-06T17:01:22.140Z,24.53
2018-11-06T17:03:48.108Z,25.40
2018-11-06T17:06:14.104Z,24.47
2018-11-06T17:08:40.110Z,29.67
2018-11-06T17:11:06.323Z,25.07
2018-11-06T17:13:32.333Z,23.07
2018-11-06T17:15:58.322Z,20.77
2018-11-06T17:18:24.317Z,21.83
2018-11-06T17:20:50.289Z,23.20
2018-11-06T17:23:16.303Z,26.40
2018-11-06T17:25:42.293Z,22.90
2018-11-06T17:28:09.012Z,25.07
2018-11-06T17:30:35.761Z,29.00
2018-11-06T17:33:01.749Z,29.20
2018-11-06T17:35:27.768Z,30.40
2018-11-06T17:37:53.785Z,28.07
2018-11-06T17:40:19.842Z,32.13
2018-11-06T17:42:45.860Z,34.10
2018-11-06T17:45:11.922Z,28.03
2018-11-06T17:47:37.848Z,31.50
2018-11-06T17:50:03.812Z,35.33
2018-11-06T17:52:29.817Z,32.93
2018-11-06T17:54:55.858Z,32.03
2018-11-06T17:57:21.811Z,31.87
2018-11-06T17:59:48.568Z,34.53
2018-11-06T18:02:14.611Z,31.80
2018-11-06T18:04:40.629Z,30.97
2018-11-06T18:07:06.567Z,31.77
2018-11-06T18:09:32.549Z,31.77
2018-11-06T18:11:59.325Z,33.60
2018-11-06T18:14:25.294Z,36.67
2018-11-06T18:17:01.337Z,40.27
2018-11-06T18:19:27.337Z,43.47
2018-11-06T18:21:53.357Z,36.10
2018-11-06T18:24:19.388Z,34.67
2018-11-06T18:26:45.455Z,34.37
2018-11-06T18:29:11.428Z,35.67
2018-11-06T18:31:37.498Z,32.40
2018-11-06T18:34:03.417Z,33.90
2018-11-06T18:36:29.640Z,34.07
2018-11-06T18:38:56.000Z,34.87
2018-11-06T18:41:22.478Z,34.90
2018-11-06T18:43:48.607Z,32.47
2018-11-06T18:46:15.098Z,32.00
2018-11-06T18:48:41.301Z,33.60
2018-11-06T18:51:07.307Z,34.17
2018-11-06T18:53:33.560Z,39.50
2018-11-06T18:55:59.870Z,34.70
2018-11-06T18:58:25.990Z,33.57
2018-11-06T19:00:51.977Z,33.10
2018-11-06T19:03:17.956Z,32.33
2018-11-06T19:05:43.963Z,33.30
2018-11-06T19:08:09.933Z,33.00
2018-11-06T19:10:36.236Z,31.07
2018-11-06T19:13:02.271Z,33.90
2018-11-06T19:15:28.338Z,32.97
2018-11-06T19:17:54.785Z,33.87
2018-11-06T19:20:20.884Z,34.07
2018-11-06T19:22:46.947Z,35.27
2018-11-06T19:25:12.949Z,35.37
2018-11-06T19:27:38.980Z,37.03
2018-11-06T19:30:05.012Z,36.17
2018-11-06T19:32:31.108Z,38.57
2018-11-06T19:34:57.131Z,35.87
2018-11-06T19:37:23.327Z,37.00
2018-11-06T19:39:50.070Z,36.93
2018-11-06T19:42:16.124Z,41.10
2018-11-06T19:44:42.241Z,38.97
2018-11-06T19:47:08.287Z,35.57
2018-11-06T19:49:34.423Z,34.37
2018-11-06T19:52:00.598Z,37.47
2018-11-06T19:54:27.363Z,37.60
2018-11-06T19:56:53.718Z,39.40
2018-11-06T19:59:19.782Z,37.57
2018-11-06T20:01:47.547Z,38.03
2018-11-06T20:04:13.604Z,37.30
2018-11-06T20:06:40.276Z,39.07
2018-11-06T20:09:06.386Z,40.40
2018-11-06T20:11:32.474Z,41.17
2018-11-06T20:13:59.240Z,46.37
2018-11-06T20:16:25.230Z,39.97
2018-11-06T20:18:51.230Z,46.10
2018-11-06T20:21:17.261Z,41.87
2018-11-06T20:23:43.602Z,43.90
2018-11-06T20:26:09.490Z,51.07
2018-11-06T20:28:35.513Z,46.90
2018-11-06T20:31:01.717Z,45.10
2018-11-06T20:33:27.896Z,43.87
2018-11-06T20:35:53.768Z,49.53
2018-11-06T20:38:21.064Z,45.57
2018-11-06T20:40:47.196Z,48.40
2018-11-06T20:43:13.320Z,48.17
2018-11-06T20:45:39.258Z,45.67
2018-11-06T20:48:05.376Z,45.57
2018-11-06T20:50:31.506Z,50.47
2018-11-06T20:52:58.391Z,49.87
2018-11-06T20:55:25.239Z,47.80
2018-11-06T20:58:02.186Z,49.80
2018-11-06T21:00:28.420Z,46.23
2018-11-06T21:02:55.291Z,49.27
2018-11-06T21:05:21.305Z,52.30
2018-11-06T21:07:47.306Z,47.13
2018-11-06T21:10:14.036Z,51.17
2018-11-06T21:12:40.897Z,50.03
2018-11-06T21:15:07.642Z,45.20
2018-11-06T21:17:33.677Z,49.37
2018-11-06T21:19:59.786Z,50.80
2018-11-06T21:22:25.704Z,53.03
2018-11-06T21:24:52.526Z,46.60
2018-11-06T21:27:18.564Z,51.70
2018-11-06T21:29:44.556Z,50.27
2018-11-06T21:32:10.572Z,50.53
2018-11-06T21:34:36.575Z,50.73
2018-11-06T21:37:02.900Z,50.47
2018-11-06T21:39:29.693Z,51.47
2018-11-06T21:41:55.834Z,46.47
2018-11-06T21:44:21.793Z,49.70
2018-11-06T21:46:47.772Z,48.03
2018-11-06T21:49:13.762Z,50.80
2018-11-06T21:51:39.739Z,49.93
2018-11-06T21:54:05.710Z,45.80
2018-11-06T21:56:31.677Z,49.07
2018-11-06T21:58:58.393Z,50.30
2018-11-06T22:01:24.352Z,48.43
2018-11-06T22:03:51.081Z,49.53
2018-11-06T22:06:17.795Z,48.70
2018-11-06T22:08:43.775Z,47.83
2018-11-06T22:11:09.740Z,53.10
2018-11-06T22:13:35.729Z,46.27
2018-11-06T22:16:01.707Z,44.83
2018-11-06T22:18:27.733Z,37.67
2018-11-06T22:20:53.741Z,43.77
2018-11-06T22:23:19.725Z,44.20
2018-11-06T22:25:45.696Z,45.10
2018-11-06T22:28:12.418Z,44.63
2018-11-06T22:30:38.409Z,40.43
2018-11-06T22:33:04.451Z,40.37
2018-11-06T22:35:30.377Z,43.33
2018-11-06T22:37:56.396Z,41.77
2018-11-06T22:40:23.093Z,42.03
2018-11-06T22:42:49.065Z,39.07
2018-11-06T22:45:15.048Z,44.70
2018-11-06T22:47:41.065Z,44.83
2018-11-06T22:50:07.052Z,45.10
2018-11-06T22:52:33.016Z,42.33
2018-11-06T22:54:59.022Z,43.27
2018-11-06T22:57:25.759Z,43.27
2018-11-06T22:59:51.743Z,41.53
2018-11-06T23:02:24.849Z,42.40
2018-11-06T23:04:50.842Z,41.60
2018-11-06T23:07:16.996Z,36.97
2018-11-06T23:09:42.846Z,39.20
2018-11-06T23:12:09.682Z,41.13
2018-11-06T23:14:36.462Z,38.60
2018-11-06T23:17:02.473Z,37.93
2018-11-06T23:19:28.473Z,42.63
2018-11-06T23:21:55.192Z,44.80
2018-11-06T23:24:21.192Z,38.23
2018-11-06T23:26:47.203Z,35.20
2018-11-06T23:29:13.204Z,43.87
2018-11-06T23:31:39.263Z,38.20
2018-11-06T23:34:05.929Z,39.47
2018-11-06T23:36:31.912Z,40.43
2018-11-06T23:38:57.898Z,36.73
2018-11-06T23:41:24.622Z,36.00
2018-11-06T23:43:50.617Z,39.47
2018-11-06T23:46:16.609Z,37.17
2018-11-06T23:48:42.585Z,39.57
2018-11-06T23:51:08.576Z,36.67
2018-11-06T23:53:34.608Z,36.67
2018-11-06T23:56:01.394Z,39.97
2018-11-06T23:58:28.117Z,37.17
